sensor_id;sensor_type;location;lat;lon;timestamp;P1;durP1;ratioP1;P2;durP2;ratioP2
11614;SDS011;5863;52.832;4.758;2023-05-14T00:01:35;14.15;;;10.48;;
11614;SDS011;5863;52.832;4.758;2023-05-14T00:04:01;15.43;;;10.57;;
11614;SDS011;5863;52.832;4.758;2023-05-14T00:06:30;14.65;;;11.05;;
11614;SDS011;5863;52.832;4.758;2023-05-14T00:08:56;24.67;;;12.18;;
11614;SDS011;5863;52.832;4.758;2023-05-14T00:11:23;17.90;;;11.65;;
11614;SDS011;5863;52.832;4.758;2023-05-14T00:13:50;16.13;;;11.25;;
11614;SDS011;5863;52.832;4.758;2023-05-14T00:16:16;19.13;;;12.05;;
11614;SDS011;5863;52.832;4.758;2023-05-14T00:18:43;16.55;;;12.50;;
11614;SDS011;5863;52.832;4.758;2023-05-14T00:21:10;20.02;;;13.15;;
11614;SDS011;5863;52.832;4.758;2023-05-14T00:23:38;18.33;;;12.40;;
11614;SDS011;5863;52.832;4.758;2023-05-14T00:26:05;21.88;;;14.23;;
11614;SDS011;5863;52.832;4.758;2023-05-14T00:28:32;18.63;;;13.13;;
11614;SDS011;5863;52.832;4.758;2023-05-14T00:30:58;18.02;;;13.82;;
11614;SDS011;5863;52.832;4.758;2023-05-14T00:33:25;20.27;;;14.27;;
11614;SDS011;5863;52.832;4.758;2023-05-14T00:35:52;21.55;;;13.85;;
11614;SDS011;5863;52.832;4.758;2023-05-14T00:38:18;23.38;;;14.25;;
11614;SDS011;5863;52.832;4.758;2023-05-14T00:40:46;21.23;;;13.43;;
11614;SDS011;5863;52.832;4.758;2023-05-14T00:43:15;17.23;;;13.55;;
11614;SDS011;5863;52.832;4.758;2023-05-14T00:45:43;20.98;;;13.73;;
11614;SDS011;5863;52.832;4.758;2023-05-14T00:48:10;19.33;;;13.40;;
11614;SDS011;5863;52.832;4.758;2023-05-14T00:50:37;19.52;;;13.90;;
11614;SDS011;5863;52.832;4.758;2023-05-14T00:53:04;18.02;;;13.15;;
11614;SDS011;5863;52.832;4.758;2023-05-14T00:55:34;21.08;;;14.80;;
11614;SDS011;5863;52.832;4.758;2023-05-14T00:58:02;19.83;;;14.25;;
11614;SDS011;5863;52.832;4.758;2023-05-14T01:00:32;19.27;;;13.98;;
11614;SDS011;5863;52.832;4.758;2023-05-14T01:02:59;21.15;;;13.75;;
11614;SDS011;5863;52.832;4.758;2023-05-14T01:05:26;19.45;;;14.15;;
11614;SDS011;5863;52.832;4.758;2023-05-14T01:08:00;20.33;;;14.20;;
11614;SDS011;5863;52.832;4.758;2023-05-14T01:10:31;26.15;;;15.00;;
11614;SDS011;5863;52.832;4.758;2023-05-14T01:13:11;21.38;;;14.45;;
11614;SDS011;5863;52.832;4.758;2023-05-14T01:15:42;18.58;;;15.32;;
11614;SDS011;5863;52.832;4.758;2023-05-14T01:18:12;25.42;;;17.08;;
11614;SDS011;5863;52.832;4.758;2023-05-14T01:20:43;20.88;;;17.02;;
11614;SDS011;5863;52.832;4.758;2023-05-14T01:23:11;23.52;;;17.63;;
11614;SDS011;5863;52.832;4.758;2023-05-14T01:25:38;24.45;;;17.85;;
11614;SDS011;5863;52.832;4.758;2023-05-14T01:28:08;21.80;;;17.40;;
11614;SDS011;5863;52.832;4.758;2023-05-14T01:30:42;24.58;;;17.58;;
11614;SDS011;5863;52.832;4.758;2023-05-14T01:33:15;24.20;;;18.17;;
11614;SDS011;5863;52.832;4.758;2023-05-14T01:35:44;24.75;;;18.60;;
11614;SDS011;5863;52.832;4.758;2023-05-14T01:38:12;25.25;;;18.95;;
11614;SDS011;5863;52.832;4.758;2023-05-14T01:40:41;27.58;;;19.30;;
11614;SDS011;5863;52.832;4.758;2023-05-14T01:43:09;27.23;;;20.83;;
11614;SDS011;5863;52.832;4.758;2023-05-14T01:45:36;27.63;;;21.02;;
11614;SDS011;5863;52.832;4.758;2023-05-14T01:48:03;26.30;;;21.83;;
11614;SDS011;5863;52.832;4.758;2023-05-14T01:50:30;33.75;;;23.48;;
11614;SDS011;5863;52.832;4.758;2023-05-14T01:52:57;33.80;;;23.98;;
11614;SDS011;5863;52.832;4.758;2023-05-14T01:55:25;32.55;;;23.23;;
11614;SDS011;5863;52.832;4.758;2023-05-14T01:57:52;30.70;;;22.58;;
11614;SDS011;5863;52.832;4.758;2023-05-14T02:00:18;28.10;;;21.80;;
11614;SDS011;5863;52.832;4.758;2023-05-14T02:02:47;28.52;;;21.40;;
11614;SDS011;5863;52.832;4.758;2023-05-14T02:05:14;30.30;;;21.08;;
11614;SDS011;5863;52.832;4.758;2023-05-14T02:07:40;25.60;;;20.65;;
11614;SDS011;5863;52.832;4.758;2023-05-14T02:10:08;25.40;;;19.35;;
11614;SDS011;5863;52.832;4.758;2023-05-14T02:12:36;26.73;;;18.92;;
11614;SDS011;5863;52.832;4.758;2023-05-14T02:15:03;21.67;;;18.08;;
11614;SDS011;5863;52.832;4.758;2023-05-14T02:17:30;25.30;;;17.75;;
11614;SDS011;5863;52.832;4.758;2023-05-14T02:19:58;24.08;;;17.25;;
11614;SDS011;5863;52.832;4.758;2023-05-14T02:22:24;23.08;;;16.77;;
11614;SDS011;5863;52.832;4.758;2023-05-14T02:24:51;26.02;;;17.08;;
11614;SDS011;5863;52.832;4.758;2023-05-14T02:27:18;23.23;;;17.08;;
11614;SDS011;5863;52.832;4.758;2023-05-14T02:29:46;23.65;;;15.85;;
11614;SDS011;5863;52.832;4.758;2023-05-14T02:32:13;22.15;;;16.70;;
11614;SDS011;5863;52.832;4.758;2023-05-14T02:34:39;21.55;;;16.27;;
11614;SDS011;5863;52.832;4.758;2023-05-14T02:37:06;17.80;;;14.93;;
11614;SDS011;5863;52.832;4.758;2023-05-14T02:39:33;22.35;;;15.82;;
11614;SDS011;5863;52.832;4.758;2023-05-14T02:41:59;19.92;;;15.18;;
11614;SDS011;5863;52.832;4.758;2023-05-14T02:44:26;19.30;;;15.57;;
11614;SDS011;5863;52.832;4.758;2023-05-14T02:46:54;22.73;;;15.90;;
11614;SDS011;5863;52.832;4.758;2023-05-14T02:49:21;21.73;;;16.02;;
11614;SDS011;5863;52.832;4.758;2023-05-14T02:51:47;22.05;;;15.35;;
11614;SDS011;5863;52.832;4.758;2023-05-14T02:54:14;22.73;;;15.45;;
11614;SDS011;5863;52.832;4.758;2023-05-14T02:56:41;21.45;;;15.60;;
11614;SDS011;5863;52.832;4.758;2023-05-14T02:59:07;22.08;;;15.70;;
11614;SDS011;5863;52.832;4.758;2023-05-14T03:01:34;21.35;;;16.10;;
11614;SDS011;5863;52.832;4.758;2023-05-14T03:04:02;20.42;;;14.73;;
11614;SDS011;5863;52.832;4.758;2023-05-14T03:06:29;21.65;;;15.18;;
11614;SDS011;5863;52.832;4.758;2023-05-14T03:08:56;19.05;;;15.23;;
11614;SDS011;5863;52.832;4.758;2023-05-14T03:11:23;18.77;;;14.23;;
11614;SDS011;5863;52.832;4.758;2023-05-14T03:13:49;19.75;;;14.65;;
11614;SDS011;5863;52.832;4.758;2023-05-14T03:16:16;18.63;;;14.20;;
11614;SDS011;5863;52.832;4.758;2023-05-14T03:18:43;20.27;;;14.45;;
11614;SDS011;5863;52.832;4.758;2023-05-14T03:21:12;19.13;;;14.20;;
11614;SDS011;5863;52.832;4.758;2023-05-14T03:23:39;21.17;;;14.18;;
11614;SDS011;5863;52.832;4.758;2023-05-14T03:26:06;17.20;;;12.70;;
11614;SDS011;5863;52.832;4.758;2023-05-14T03:28:32;20.40;;;12.75;;
11614;SDS011;5863;52.832;4.758;2023-05-14T03:30:59;14.57;;;11.10;;
11614;SDS011;5863;52.832;4.758;2023-05-14T03:33:26;18.25;;;11.40;;
11614;SDS011;5863;52.832;4.758;2023-05-14T03:35:53;18.10;;;11.57;;
11614;SDS011;5863;52.832;4.758;2023-05-14T03:38:21;17.17;;;11.60;;
11614;SDS011;5863;52.832;4.758;2023-05-14T03:40:47;15.88;;;11.93;;
11614;SDS011;5863;52.832;4.758;2023-05-14T03:43:14;17.73;;;11.73;;
11614;SDS011;5863;52.832;4.758;2023-05-14T03:45:41;15.40;;;11.45;;
11614;SDS011;5863;52.832;4.758;2023-05-14T03:48:08;18.67;;;12.48;;
11614;SDS011;5863;52.832;4.758;2023-05-14T03:50:34;20.83;;;12.63;;
11614;SDS011;5863;52.832;4.758;2023-05-14T03:53:01;19.30;;;12.77;;
11614;SDS011;5863;52.832;4.758;2023-05-14T03:55:29;18.33;;;12.73;;
11614;SDS011;5863;52.832;4.758;2023-05-14T03:57:56;18.33;;;12.57;;
11614;SDS011;5863;52.832;4.758;2023-05-14T04:00:22;21.25;;;12.85;;
11614;SDS011;5863;52.832;4.758;2023-05-14T04:02:49;20.83;;;12.48;;
11614;SDS011;5863;52.832;4.758;2023-05-14T04:05:15;17.23;;;11.65;;
11614;SDS011;5863;52.832;4.758;2023-05-14T04:07:42;16.30;;;11.70;;
11614;SDS011;5863;52.832;4.758;2023-05-14T04:10:10;16.77;;;11.32;;
11614;SDS011;5863;52.832;4.758;2023-05-14T04:12:39;15.63;;;10.68;;
11614;SDS011;5863;52.832;4.758;2023-05-14T04:15:06;16.75;;;10.65;;
11614;SDS011;5863;52.832;4.758;2023-05-14T04:17:35;15.25;;;10.52;;
11614;SDS011;5863;52.832;4.758;2023-05-14T04:20:02;17.60;;;10.20;;
11614;SDS011;5863;52.832;4.758;2023-05-14T04:22:29;16.23;;;9.98;;
11614;SDS011;5863;52.832;4.758;2023-05-14T04:24:56;16.42;;;9.38;;
11614;SDS011;5863;52.832;4.758;2023-05-14T04:27:22;17.35;;;9.07;;
11614;SDS011;5863;52.832;4.758;2023-05-14T04:29:51;18.10;;;9.02;;
11614;SDS011;5863;52.832;4.758;2023-05-14T04:32:18;18.85;;;9.25;;
11614;SDS011;5863;52.832;4.758;2023-05-14T04:34:45;14.15;;;9.02;;
11614;SDS011;5863;52.832;4.758;2023-05-14T04:37:12;14.90;;;9.70;;
11614;SDS011;5863;52.832;4.758;2023-05-14T04:39:38;16.90;;;8.25;;
11614;SDS011;5863;52.832;4.758;2023-05-14T04:42:05;16.02;;;9.00;;
11614;SDS011;5863;52.832;4.758;2023-05-14T04:44:32;22.05;;;9.90;;
11614;SDS011;5863;52.832;4.758;2023-05-14T04:47:01;16.75;;;9.43;;
11614;SDS011;5863;52.832;4.758;2023-05-14T04:49:28;18.35;;;9.93;;
11614;SDS011;5863;52.832;4.758;2023-05-14T04:51:55;17.23;;;10.32;;
11614;SDS011;5863;52.832;4.758;2023-05-14T04:54:22;19.35;;;10.23;;
11614;SDS011;5863;52.832;4.758;2023-05-14T04:56:49;19.15;;;12.27;;
11614;SDS011;5863;52.832;4.758;2023-05-14T04:59:15;20.42;;;13.13;;
11614;SDS011;5863;52.832;4.758;2023-05-14T05:01:42;21.35;;;12.77;;
11614;SDS011;5863;52.832;4.758;2023-05-14T05:04:10;21.42;;;13.25;;
11614;SDS011;5863;52.832;4.758;2023-05-14T05:06:37;18.80;;;13.13;;
11614;SDS011;5863;52.832;4.758;2023-05-14T05:09:04;21.08;;;13.80;;
11614;SDS011;5863;52.832;4.758;2023-05-14T05:11:30;23.45;;;15.10;;
11614;SDS011;5863;52.832;4.758;2023-05-14T05:13:57;25.00;;;14.13;;
11614;SDS011;5863;52.832;4.758;2023-05-14T05:16:24;20.33;;;13.30;;
11614;SDS011;5863;52.832;4.758;2023-05-14T05:18:51;18.30;;;13.35;;
11614;SDS011;5863;52.832;4.758;2023-05-14T05:21:19;19.63;;;11.93;;
11614;SDS011;5863;52.832;4.758;2023-05-14T05:23:45;20.83;;;10.98;;
11614;SDS011;5863;52.832;4.758;2023-05-14T05:26:12;19.30;;;10.57;;
11614;SDS011;5863;52.832;4.758;2023-05-14T05:28:38;25.02;;;10.77;;
11614;SDS011;5863;52.832;4.758;2023-05-14T05:31:05;14.93;;;9.15;;
11614;SDS011;5863;52.832;4.758;2023-05-14T05:33:33;17.73;;;9.20;;
11614;SDS011;5863;52.832;4.758;2023-05-14T05:36:00;15.73;;;8.88;;
11614;SDS011;5863;52.832;4.758;2023-05-14T05:38:28;14.00;;;8.70;;
11614;SDS011;5863;52.832;4.758;2023-05-14T05:40:55;20.83;;;8.05;;
11614;SDS011;5863;52.832;4.758;2023-05-14T05:43:21;14.85;;;7.88;;
11614;SDS011;5863;52.832;4.758;2023-05-14T05:45:48;18.23;;;8.10;;
11614;SDS011;5863;52.832;4.758;2023-05-14T05:48:15;20.30;;;8.57;;
11614;SDS011;5863;52.832;4.758;2023-05-14T05:50:45;17.23;;;7.93;;
11614;SDS011;5863;52.832;4.758;2023-05-14T05:53:14;13.75;;;7.32;;
11614;SDS011;5863;52.832;4.758;2023-05-14T05:55:43;16.65;;;7.80;;
11614;SDS011;5863;52.832;4.758;2023-05-14T05:58:09;16.15;;;7.28;;
11614;SDS011;5863;52.832;4.758;2023-05-14T06:00:38;16.35;;;6.85;;
11614;SDS011;5863;52.832;4.758;2023-05-14T06:03:04;13.80;;;6.55;;
11614;SDS011;5863;52.832;4.758;2023-05-14T06:05:32;13.65;;;6.53;;
11614;SDS011;5863;52.832;4.758;2023-05-14T06:07:59;10.55;;;5.70;;
11614;SDS011;5863;52.832;4.758;2023-05-14T06:10:26;14.00;;;7.35;;
11614;SDS011;5863;52.832;4.758;2023-05-14T06:12:54;12.52;;;7.15;;
11614;SDS011;5863;52.832;4.758;2023-05-14T06:15:21;15.23;;;7.55;;
11614;SDS011;5863;52.832;4.758;2023-05-14T06:17:51;14.13;;;7.32;;
11614;SDS011;5863;52.832;4.758;2023-05-14T06:20:18;10.63;;;7.13;;
11614;SDS011;5863;52.832;4.758;2023-05-14T06:22:45;14.23;;;7.10;;
11614;SDS011;5863;52.832;4.758;2023-05-14T06:25:11;15.68;;;7.90;;
11614;SDS011;5863;52.832;4.758;2023-05-14T06:27:39;14.88;;;7.22;;
11614;SDS011;5863;52.832;4.758;2023-05-14T06:30:08;14.88;;;8.20;;
11614;SDS011;5863;52.832;4.758;2023-05-14T06:32:35;16.25;;;7.45;;
11614;SDS011;5863;52.832;4.758;2023-05-14T06:35:02;14.10;;;7.97;;
11614;SDS011;5863;52.832;4.758;2023-05-14T06:37:29;21.70;;;7.78;;
11614;SDS011;5863;52.832;4.758;2023-05-14T06:39:56;10.98;;;7.40;;
11614;SDS011;5863;52.832;4.758;2023-05-14T06:42:22;15.80;;;7.63;;
11614;SDS011;5863;52.832;4.758;2023-05-14T06:44:50;13.27;;;7.40;;
11614;SDS011;5863;52.832;4.758;2023-05-14T06:47:18;11.73;;;7.50;;
11614;SDS011;5863;52.832;4.758;2023-05-14T06:49:45;12.65;;;7.40;;
11614;SDS011;5863;52.832;4.758;2023-05-14T06:52:11;13.93;;;7.18;;
11614;SDS011;5863;52.832;4.758;2023-05-14T06:54:39;14.80;;;6.95;;
11614;SDS011;5863;52.832;4.758;2023-05-14T06:57:06;10.63;;;6.60;;
11614;SDS011;5863;52.832;4.758;2023-05-14T06:59:32;14.52;;;7.18;;
11614;SDS011;5863;52.832;4.758;2023-05-14T07:01:59;13.75;;;7.20;;
11614;SDS011;5863;52.832;4.758;2023-05-14T07:04:28;14.50;;;6.55;;
11614;SDS011;5863;52.832;4.758;2023-05-14T07:06:55;9.43;;;6.10;;
11614;SDS011;5863;52.832;4.758;2023-05-14T07:09:21;13.63;;;6.82;;
11614;SDS011;5863;52.832;4.758;2023-05-14T07:11:49;8.55;;;6.00;;
11614;SDS011;5863;52.832;4.758;2023-05-14T07:14:16;13.13;;;6.15;;
11614;SDS011;5863;52.832;4.758;2023-05-14T07:16:42;11.45;;;6.25;;
11614;SDS011;5863;52.832;4.758;2023-05-14T07:19:10;11.93;;;6.32;;
11614;SDS011;5863;52.832;4.758;2023-05-14T07:21:38;13.95;;;5.93;;
11614;SDS011;5863;52.832;4.758;2023-05-14T07:24:05;14.18;;;6.13;;
11614;SDS011;5863;52.832;4.758;2023-05-14T07:26:32;16.60;;;6.25;;
11614;SDS011;5863;52.832;4.758;2023-05-14T07:28:59;10.68;;;5.72;;
11614;SDS011;5863;52.832;4.758;2023-05-14T07:31:26;13.02;;;5.53;;
11614;SDS011;5863;52.832;4.758;2023-05-14T07:33:52;10.63;;;5.00;;
11614;SDS011;5863;52.832;4.758;2023-05-14T07:36:19;9.25;;;4.78;;
11614;SDS011;5863;52.832;4.758;2023-05-14T07:38:47;11.63;;;4.47;;
11614;SDS011;5863;52.832;4.758;2023-05-14T07:41:14;9.00;;;4.43;;
11614;SDS011;5863;52.832;4.758;2023-05-14T07:43:41;11.38;;;4.85;;
11614;SDS011;5863;52.832;4.758;2023-05-14T07:46:07;11.23;;;4.68;;
11614;SDS011;5863;52.832;4.758;2023-05-14T07:48:34;10.20;;;4.80;;
11614;SDS011;5863;52.832;4.758;2023-05-14T07:51:02;12.27;;;5.20;;
11614;SDS011;5863;52.832;4.758;2023-05-14T07:53:29;13.32;;;4.72;;
11614;SDS011;5863;52.832;4.758;2023-05-14T07:55:57;10.57;;;3.60;;
11614;SDS011;5863;52.832;4.758;2023-05-14T07:58:24;11.05;;;3.65;;
11614;SDS011;5863;52.832;4.758;2023-05-14T08:00:51;11.77;;;4.13;;
11614;SDS011;5863;52.832;4.758;2023-05-14T08:03:18;9.48;;;3.60;;
11614;SDS011;5863;52.832;4.758;2023-05-14T08:05:45;7.25;;;3.60;;
11614;SDS011;5863;52.832;4.758;2023-05-14T08:08:11;5.65;;;3.50;;
11614;SDS011;5863;52.832;4.758;2023-05-14T08:10:38;12.55;;;3.75;;
11614;SDS011;5863;52.832;4.758;2023-05-14T08:13:06;11.32;;;3.40;;
11614;SDS011;5863;52.832;4.758;2023-05-14T08:15:33;7.63;;;3.53;;
11614;SDS011;5863;52.832;4.758;2023-05-14T08:18:00;10.52;;;3.30;;
11614;SDS011;5863;52.832;4.758;2023-05-14T08:20:28;11.23;;;3.85;;
11614;SDS011;5863;52.832;4.758;2023-05-14T08:22:54;9.27;;;3.55;;
11614;SDS011;5863;52.832;4.758;2023-05-14T08:25:21;12.25;;;3.92;;
11614;SDS011;5863;52.832;4.758;2023-05-14T08:27:48;11.05;;;3.67;;
11614;SDS011;5863;52.832;4.758;2023-05-14T08:30:17;9.93;;;3.67;;
11614;SDS011;5863;52.832;4.758;2023-05-14T08:32:43;8.30;;;3.50;;
11614;SDS011;5863;52.832;4.758;2023-05-14T08:35:10;13.15;;;4.03;;
11614;SDS011;5863;52.832;4.758;2023-05-14T08:37:37;7.28;;;3.60;;
11614;SDS011;5863;52.832;4.758;2023-05-14T08:40:04;9.63;;;3.60;;
11614;SDS011;5863;52.832;4.758;2023-05-14T08:42:32;6.80;;;3.22;;
11614;SDS011;5863;52.832;4.758;2023-05-14T08:45:00;7.90;;;3.22;;
11614;SDS011;5863;52.832;4.758;2023-05-14T08:47:29;6.00;;;3.25;;
11614;SDS011;5863;52.832;4.758;2023-05-14T08:49:58;9.40;;;2.97;;
11614;SDS011;5863;52.832;4.758;2023-05-14T08:52:28;9.93;;;3.42;;
11614;SDS011;5863;52.832;4.758;2023-05-14T08:54:55;6.95;;;3.60;;
11614;SDS011;5863;52.832;4.758;2023-05-14T08:57:24;8.63;;;3.40;;
11614;SDS011;5863;52.832;4.758;2023-05-14T08:59:51;7.85;;;3.35;;
11614;SDS011;5863;52.832;4.758;2023-05-14T09:02:19;10.50;;;3.45;;
11614;SDS011;5863;52.832;4.758;2023-05-14T09:04:52;11.85;;;3.20;;
11614;SDS011;5863;52.832;4.758;2023-05-14T09:07:21;8.73;;;3.15;;
11614;SDS011;5863;52.832;4.758;2023-05-14T09:09:48;9.95;;;3.80;;
11614;SDS011;5863;52.832;4.758;2023-05-14T09:12:16;11.18;;;3.47;;
11614;SDS011;5863;52.832;4.758;2023-05-14T09:14:42;9.95;;;3.80;;
11614;SDS011;5863;52.832;4.758;2023-05-14T09:17:10;8.60;;;3.72;;
11614;SDS011;5863;52.832;4.758;2023-05-14T09:19:37;7.78;;;3.50;;
11614;SDS011;5863;52.832;4.758;2023-05-14T09:22:08;11.80;;;3.53;;
11614;SDS011;5863;52.832;4.758;2023-05-14T09:24:37;7.65;;;3.50;;
11614;SDS011;5863;52.832;4.758;2023-05-14T09:27:04;8.38;;;3.80;;
11614;SDS011;5863;52.832;4.758;2023-05-14T09:29:32;10.77;;;4.18;;
11614;SDS011;5863;52.832;4.758;2023-05-14T09:31:59;7.20;;;3.38;;
11614;SDS011;5863;52.832;4.758;2023-05-14T09:34:30;6.97;;;3.70;;
11614;SDS011;5863;52.832;4.758;2023-05-14T09:36:57;9.40;;;4.22;;
11614;SDS011;5863;52.832;4.758;2023-05-14T09:39:27;8.57;;;4.53;;
11614;SDS011;5863;52.832;4.758;2023-05-14T09:41:54;8.98;;;4.95;;
11614;SDS011;5863;52.832;4.758;2023-05-14T09:44:21;8.55;;;4.82;;
11614;SDS011;5863;52.832;4.758;2023-05-14T09:46:49;7.78;;;4.30;;
11614;SDS011;5863;52.832;4.758;2023-05-14T09:49:17;8.85;;;4.70;;
11614;SDS011;5863;52.832;4.758;2023-05-14T09:51:44;8.10;;;4.70;;
11614;SDS011;5863;52.832;4.758;2023-05-14T09:54:11;12.48;;;4.55;;
11614;SDS011;5863;52.832;4.758;2023-05-14T09:56:39;8.88;;;4.93;;
11614;SDS011;5863;52.832;4.758;2023-05-14T09:59:06;10.43;;;4.95;;
11614;SDS011;5863;52.832;4.758;2023-05-14T10:01:33;7.07;;;4.68;;
11614;SDS011;5863;52.832;4.758;2023-05-14T10:04:01;11.18;;;4.60;;
11614;SDS011;5863;52.832;4.758;2023-05-14T10:06:32;8.93;;;4.03;;
11614;SDS011;5863;52.832;4.758;2023-05-14T10:09:03;7.75;;;4.30;;
11614;SDS011;5863;52.832;4.758;2023-05-14T10:11:31;11.68;;;4.55;;
11614;SDS011;5863;52.832;4.758;2023-05-14T10:14:02;7.45;;;3.92;;
11614;SDS011;5863;52.832;4.758;2023-05-14T10:16:33;8.40;;;3.97;;
11614;SDS011;5863;52.832;4.758;2023-05-14T10:19:04;6.38;;;3.67;;
11614;SDS011;5863;52.832;4.758;2023-05-14T10:21:33;9.27;;;4.10;;
11614;SDS011;5863;52.832;4.758;2023-05-14T10:24:01;8.70;;;3.83;;
11614;SDS011;5863;52.832;4.758;2023-05-14T10:26:29;8.43;;;4.00;;
11614;SDS011;5863;52.832;4.758;2023-05-14T10:28:56;7.50;;;3.95;;
11614;SDS011;5863;52.832;4.758;2023-05-14T10:31:34;11.15;;;3.67;;
11614;SDS011;5863;52.832;4.758;2023-05-14T10:36:57;8.73;;;3.55;;
11614;SDS011;5863;52.832;4.758;2023-05-14T10:39:38;7.47;;;3.72;;
11614;SDS011;5863;52.832;4.758;2023-05-14T10:42:09;8.05;;;4.00;;
11614;SDS011;5863;52.832;4.758;2023-05-14T10:44:36;7.28;;;3.50;;
11614;SDS011;5863;52.832;4.758;2023-05-14T10:47:09;7.10;;;3.72;;
11614;SDS011;5863;52.832;4.758;2023-05-14T10:49:37;5.15;;;3.22;;
11614;SDS011;5863;52.832;4.758;2023-05-14T10:52:06;9.73;;;3.38;;
11614;SDS011;5863;52.832;4.758;2023-05-14T10:54:34;6.50;;;3.03;;
11614;SDS011;5863;52.832;4.758;2023-05-14T10:57:01;6.47;;;3.50;;
11614;SDS011;5863;52.832;4.758;2023-05-14T10:59:28;7.60;;;3.60;;
11614;SDS011;5863;52.832;4.758;2023-05-14T11:01:55;6.40;;;3.20;;
11614;SDS011;5863;52.832;4.758;2023-05-14T11:04:23;6.63;;;3.53;;
11614;SDS011;5863;52.832;4.758;2023-05-14T11:06:52;8.32;;;3.22;;
11614;SDS011;5863;52.832;4.758;2023-05-14T11:09:20;5.68;;;3.22;;
11614;SDS011;5863;52.832;4.758;2023-05-14T11:11:47;9.75;;;3.60;;
11614;SDS011;5863;52.832;4.758;2023-05-14T11:14:14;7.70;;;3.70;;
11614;SDS011;5863;52.832;4.758;2023-05-14T11:16:41;5.50;;;3.50;;
11614;SDS011;5863;52.832;4.758;2023-05-14T11:19:08;6.38;;;3.40;;
11614;SDS011;5863;52.832;4.758;2023-05-14T11:21:37;6.25;;;3.13;;
11614;SDS011;5863;52.832;4.758;2023-05-14T11:24:04;6.70;;;3.70;;
11614;SDS011;5863;52.832;4.758;2023-05-14T11:26:31;5.80;;;3.55;;
11614;SDS011;5863;52.832;4.758;2023-05-14T11:28:59;7.07;;;3.33;;
11614;SDS011;5863;52.832;4.758;2023-05-14T11:31:26;7.57;;;3.78;;
11614;SDS011;5863;52.832;4.758;2023-05-14T11:33:54;7.55;;;3.45;;
11614;SDS011;5863;52.832;4.758;2023-05-14T11:36:20;8.90;;;3.83;;
11614;SDS011;5863;52.832;4.758;2023-05-14T11:38:49;8.43;;;3.67;;
11614;SDS011;5863;52.832;4.758;2023-05-14T11:41:16;7.03;;;3.55;;
11614;SDS011;5863;52.832;4.758;2023-05-14T11:43:44;7.40;;;3.80;;
11614;SDS011;5863;52.832;4.758;2023-05-14T11:46:15;9.68;;;3.78;;
11614;SDS011;5863;52.832;4.758;2023-05-14T11:48:43;8.25;;;3.90;;
11614;SDS011;5863;52.832;4.758;2023-05-14T11:51:09;6.65;;;3.78;;
11614;SDS011;5863;52.832;4.758;2023-05-14T11:53:36;8.65;;;4.00;;
11614;SDS011;5863;52.832;4.758;2023-05-14T11:56:04;11.15;;;4.82;;
11614;SDS011;5863;52.832;4.758;2023-05-14T11:58:31;9.82;;;4.28;;
11614;SDS011;5863;52.832;4.758;2023-05-14T12:00:58;12.38;;;4.32;;
11614;SDS011;5863;52.832;4.758;2023-05-14T12:03:26;8.70;;;3.85;;
11614;SDS011;5863;52.832;4.758;2023-05-14T12:05:55;6.50;;;4.15;;
11614;SDS011;5863;52.832;4.758;2023-05-14T12:08:24;7.55;;;4.03;;
11614;SDS011;5863;52.832;4.758;2023-05-14T12:10:53;9.77;;;4.22;;
11614;SDS011;5863;52.832;4.758;2023-05-14T12:13:27;8.02;;;4.10;;
11614;SDS011;5863;52.832;4.758;2023-05-14T12:15:56;6.75;;;4.28;;
11614;SDS011;5863;52.832;4.758;2023-05-14T12:18:24;8.40;;;4.05;;
11614;SDS011;5863;52.832;4.758;2023-05-14T12:20:52;12.10;;;4.50;;
11614;SDS011;5863;52.832;4.758;2023-05-14T12:23:23;11.60;;;3.60;;
11614;SDS011;5863;52.832;4.758;2023-05-14T12:25:50;7.82;;;3.63;;
11614;SDS011;5863;52.832;4.758;2023-05-14T12:28:18;11.35;;;4.18;;
11614;SDS011;5863;52.832;4.758;2023-05-14T12:30:47;9.63;;;4.20;;
11614;SDS011;5863;52.832;4.758;2023-05-14T12:33:21;7.15;;;3.50;;
11614;SDS011;5863;52.832;4.758;2023-05-14T12:35:48;6.78;;;3.72;;
11614;SDS011;5863;52.832;4.758;2023-05-14T12:38:14;12.75;;;4.25;;
11614;SDS011;5863;52.832;4.758;2023-05-14T12:40:42;9.45;;;4.28;;
11614;SDS011;5863;52.832;4.758;2023-05-14T12:43:09;6.60;;;4.55;;
11614;SDS011;5863;52.832;4.758;2023-05-14T12:45:35;9.82;;;4.95;;
11614;SDS011;5863;52.832;4.758;2023-05-14T12:48:04;5.75;;;4.05;;
11614;SDS011;5863;52.832;4.758;2023-05-14T12:50:31;7.93;;;5.10;;
11614;SDS011;5863;52.832;4.758;2023-05-14T12:52:58;10.75;;;5.57;;
11614;SDS011;5863;52.832;4.758;2023-05-14T12:55:25;8.40;;;5.05;;
11614;SDS011;5863;52.832;4.758;2023-05-14T12:57:51;8.77;;;4.90;;
11614;SDS011;5863;52.832;4.758;2023-05-14T13:00:19;10.18;;;4.97;;
11614;SDS011;5863;52.832;4.758;2023-05-14T13:02:46;9.20;;;4.85;;
11614;SDS011;5863;52.832;4.758;2023-05-14T13:05:14;8.15;;;4.78;;
11614;SDS011;5863;52.832;4.758;2023-05-14T13:07:41;8.77;;;5.20;;
11614;SDS011;5863;52.832;4.758;2023-05-14T13:10:08;12.50;;;4.85;;
11614;SDS011;5863;52.832;4.758;2023-05-14T13:12:35;7.88;;;4.68;;
11614;SDS011;5863;52.832;4.758;2023-05-14T13:15:03;8.85;;;5.07;;
11614;SDS011;5863;52.832;4.758;2023-05-14T13:17:31;9.63;;;5.15;;
11614;SDS011;5863;52.832;4.758;2023-05-14T13:19:57;11.55;;;5.50;;
11614;SDS011;5863;52.832;4.758;2023-05-14T13:22:26;8.60;;;4.93;;
11614;SDS011;5863;52.832;4.758;2023-05-14T13:27:50;9.82;;;5.13;;
11614;SDS011;5863;52.832;4.758;2023-05-14T13:30:16;11.15;;;4.50;;
11614;SDS011;5863;52.832;4.758;2023-05-14T13:32:43;10.20;;;4.30;;
11614;SDS011;5863;52.832;4.758;2023-05-14T13:35:10;12.20;;;4.20;;
11614;SDS011;5863;52.832;4.758;2023-05-14T13:37:39;9.50;;;4.10;;
11614;SDS011;5863;52.832;4.758;2023-05-14T13:40:06;9.65;;;4.10;;
11614;SDS011;5863;52.832;4.758;2023-05-14T13:42:33;10.10;;;4.00;;
11614;SDS011;5863;52.832;4.758;2023-05-14T13:45:01;6.70;;;4.28;;
11614;SDS011;5863;52.832;4.758;2023-05-14T13:47:28;7.97;;;4.05;;
11614;SDS011;5863;52.832;4.758;2023-05-14T13:49:55;9.07;;;4.18;;
11614;SDS011;5863;52.832;4.758;2023-05-14T13:52:21;8.60;;;4.05;;
11614;SDS011;5863;52.832;4.758;2023-05-14T13:54:49;8.23;;;4.18;;
11614;SDS011;5863;52.832;4.758;2023-05-14T13:57:17;8.38;;;4.47;;
11614;SDS011;5863;52.832;4.758;2023-05-14T13:59:44;12.15;;;5.07;;
11614;SDS011;5863;52.832;4.758;2023-05-14T14:02:11;7.55;;;4.20;;
11614;SDS011;5863;52.832;4.758;2023-05-14T14:04:38;7.57;;;4.22;;
11614;SDS011;5863;52.832;4.758;2023-05-14T14:07:04;10.98;;;4.75;;
11614;SDS011;5863;52.832;4.758;2023-05-14T14:09:31;10.05;;;4.30;;
11614;SDS011;5863;52.832;4.758;2023-05-14T14:12:02;8.60;;;4.07;;
11614;SDS011;5863;52.832;4.758;2023-05-14T14:14:29;8.23;;;4.38;;
11614;SDS011;5863;52.832;4.758;2023-05-14T14:16:56;5.88;;;4.00;;
11614;SDS011;5863;52.832;4.758;2023-05-14T14:19:23;11.52;;;4.35;;
11614;SDS011;5863;52.832;4.758;2023-05-14T14:21:49;7.35;;;4.18;;
11614;SDS011;5863;52.832;4.758;2023-05-14T14:24:16;11.00;;;4.28;;
11614;SDS011;5863;52.832;4.758;2023-05-14T14:26:43;6.70;;;4.32;;
11614;SDS011;5863;52.832;4.758;2023-05-14T14:29:11;7.68;;;4.53;;
11614;SDS011;5863;52.832;4.758;2023-05-14T14:31:37;7.85;;;3.92;;
11614;SDS011;5863;52.832;4.758;2023-05-14T14:34:04;11.52;;;4.70;;
11614;SDS011;5863;52.832;4.758;2023-05-14T14:36:31;7.30;;;4.10;;
11614;SDS011;5863;52.832;4.758;2023-05-14T14:38:58;10.65;;;4.60;;
11614;SDS011;5863;52.832;4.758;2023-05-14T14:41:25;8.20;;;4.72;;
11614;SDS011;5863;52.832;4.758;2023-05-14T14:43:52;8.63;;;4.30;;
11614;SDS011;5863;52.832;4.758;2023-05-14T14:46:20;8.82;;;4.57;;
11614;SDS011;5863;52.832;4.758;2023-05-14T14:48:47;8.90;;;4.07;;
11614;SDS011;5863;52.832;4.758;2023-05-14T14:51:13;9.02;;;4.55;;
11614;SDS011;5863;52.832;4.758;2023-05-14T14:53:40;5.75;;;3.97;;
11614;SDS011;5863;52.832;4.758;2023-05-14T14:56:07;7.82;;;4.60;;